sensor_id;sensor_type;location;lat;lon;timestamp;temperature;humidity
56076;DHT22;41951;49.022;12.066;2022-09-13T00:00:57;13.10;99.90
56076;DHT22;41951;49.022;12.066;2022-09-13T00:03:24;13.10;99.90
56076;DHT22;41951;49.022;12.066;2022-09-13T00:05:50;13.10;99.90
56076;DHT22;41951;49.022;12.066;2022-09-13T00:08:17;13.10;99.90
56076;DHT22;41951;49.022;12.066;2022-09-13T00:10:43;13.10;99.90
56076;DHT22;41951;49.022;12.066;2022-09-13T00:13:11;13.10;99.90
56076;DHT22;41951;49.022;12.066;2022-09-13T00:15:45;13.10;99.90
56076;DHT22;41951;49.022;12.066;2022-09-13T00:18:11;13.10;99.90
56076;DHT22;41951;49.022;12.066;2022-09-13T00:20:37;13.10;99.90
56076;DHT22;41951;49.022;12.066;2022-09-13T00:23:03;13.10;99.90
56076;DHT22;41951;49.022;12.066;2022-09-13T00:25:28;13.10;99.90
56076;DHT22;41951;49.022;12.066;2022-09-13T00:27:54;13.10;99.90
56076;DHT22;41951;49.022;12.066;2022-09-13T00:30:19;13.00;99.90
56076;DHT22;41951;49.022;12.066;2022-09-13T00:32:45;13.10;99.90
56076;DHT22;41951;49.022;12.066;2022-09-13T00:35:10;13.20;99.90
56076;DHT22;41951;49.022;12.066;2022-09-13T00:37:36;13.10;99.90
56076;DHT22;41951;49.022;12.066;2022-09-13T00:40:04;13.10;99.90
56076;DHT22;41951;49.022;12.066;2022-09-13T00:42:31;13.00;99.90
56076;DHT22;41951;49.022;12.066;2022-09-13T00:44:58;12.90;99.90
56076;DHT22;41951;49.022;12.066;2022-09-13T00:49:58;13.00;99.90
56076;DHT22;41951;49.022;12.066;2022-09-13T00:52:26;13.10;99.90
56076;DHT22;41951;49.022;12.066;2022-09-13T00:55:03;13.10;99.90
56076;DHT22;41951;49.022;12.066;2022-09-13T00:57:31;13.10;99.90
56076;DHT22;41951;49.022;12.066;2022-09-13T01:00:03;13.00;99.90
56076;DHT22;41951;49.022;12.066;2022-09-13T01:02:37;13.10;99.90
56076;DHT22;41951;49.022;12.066;2022-09-13T01:05:03;13.00;99.90
56076;DHT22;41951;49.022;12.066;2022-09-13T01:07:29;13.00;99.90
56076;DHT22;41951;49.022;12.066;2022-09-13T01:09:55;13.00;99.90
56076;DHT22;41951;49.022;12.066;2022-09-13T01:12:43;13.10;99.90
56076;DHT22;41951;49.022;12.066;2022-09-13T01:15:11;13.10;99.90
56076;DHT22;41951;49.022;12.066;2022-09-13T01:17:37;13.10;99.90
56076;DHT22;41951;49.022;12.066;2022-09-13T01:20:04;13.10;99.90
56076;DHT22;41951;49.022;12.066;2022-09-13T01:22:54;13.00;99.90
56076;DHT22;41951;49.022;12.066;2022-09-13T01:34:09;12.80;99.90
56076;DHT22;41951;49.022;12.066;2022-09-13T01:39:14;12.60;99.90
56076;DHT22;41951;49.022;12.066;2022-09-13T01:53:04;12.50;99.90
56076;DHT22;41951;49.022;12.066;2022-09-13T02:00:44;12.30;99.90
56076;DHT22;41951;49.022;12.066;2022-09-13T02:03:17;12.30;99.90
56076;DHT22;41951;49.022;12.066;2022-09-13T02:05:50;12.30;99.90
56076;DHT22;41951;49.022;12.066;2022-09-13T02:08:25;12.40;99.90
56076;DHT22;41951;49.022;12.066;2022-09-13T02:11:00;12.60;99.90
56076;DHT22;41951;49.022;12.066;2022-09-13T02:13:35;12.60;99.90
56076;DHT22;41951;49.022;12.066;2022-09-13T02:16:07;12.70;99.90
56076;DHT22;41951;49.022;12.066;2022-09-13T02:18:38;12.50;99.90
56076;DHT22;41951;49.022;12.066;2022-09-13T02:21:10;12.50;99.90
56076;DHT22;41951;49.022;12.066;2022-09-13T02:23:59;12.50;99.90
56076;DHT22;41951;49.022;12.066;2022-09-13T02:26:27;12.50;99.90
56076;DHT22;41951;49.022;12.066;2022-09-13T02:28:55;12.50;99.90
56076;DHT22;41951;49.022;12.066;2022-09-13T02:31:36;12.50;99.90
56076;DHT22;41951;49.022;12.066;2022-09-13T02:34:10;12.50;99.90
56076;DHT22;41951;49.022;12.066;2022-09-13T02:36:39;12.40;99.90
56076;DHT22;41951;49.022;12.066;2022-09-13T02:39:16;12.30;99.90
56076;DHT22;41951;49.022;12.066;2022-09-13T02:41:59;12.40;99.90
56076;DHT22;41951;49.022;12.066;2022-09-13T02:44:32;12.40;99.90
56076;DHT22;41951;49.022;12.066;2022-09-13T02:57:40;12.20;99.90
56076;DHT22;41951;49.022;12.066;2022-09-13T03:00:07;12.20;99.90
56076;DHT22;41951;49.022;12.066;2022-09-13T03:02:34;12.10;99.90
56076;DHT22;41951;49.022;12.066;2022-09-13T03:05:01;12.00;99.90
56076;DHT22;41951;49.022;12.066;2022-09-13T03:07:27;12.00;99.90
56076;DHT22;41951;49.022;12.066;2022-09-13T03:10:01;12.10;99.90
56076;DHT22;41951;49.022;12.066;2022-09-13T03:18:12;12.40;99.90
56076;DHT22;41951;49.022;12.066;2022-09-13T03:21:07;12.40;99.90
56076;DHT22;41951;49.022;12.066;2022-09-13T03:29:26;12.40;99.90
56076;DHT22;41951;49.022;12.066;2022-09-13T03:32:08;12.50;99.90
56076;DHT22;41951;49.022;12.066;2022-09-13T03:43:02;12.60;99.90
56076;DHT22;41951;49.022;12.066;2022-09-13T03:45:32;12.60;99.90
56076;DHT22;41951;49.022;12.066;2022-09-13T03:48:01;12.60;99.90
56076;DHT22;41951;49.022;12.066;2022-09-13T03:50:27;12.50;99.90
56076;DHT22;41951;49.022;12.066;2022-09-13T03:53:03;12.40;99.90
56076;DHT22;41951;49.022;12.066;2022-09-13T03:55:32;12.40;99.90
56076;DHT22;41951;49.022;12.066;2022-09-13T03:57:59;12.40;99.90
56076;DHT22;41951;49.022;12.066;2022-09-13T04:00:25;12.40;99.90
56076;DHT22;41951;49.022;12.066;2022-09-13T04:02:51;12.40;99.90
56076;DHT22;41951;49.022;12.066;2022-09-13T04:05:16;12.40;99.90
56076;DHT22;41951;49.022;12.066;2022-09-13T04:07:42;12.40;99.90
56076;DHT22;41951;49.022;12.066;2022-09-13T04:10:08;12.30;99.90
56076;DHT22;41951;49.022;12.066;2022-09-13T04:12:34;12.30;99.90
56076;DHT22;41951;49.022;12.066;2022-09-13T04:15:00;12.30;99.90
56076;DHT22;41951;49.022;12.066;2022-09-13T04:17:26;12.30;99.90
56076;DHT22;41951;49.022;12.066;2022-09-13T04:19:51;12.30;99.90
56076;DHT22;41951;49.022;12.066;2022-09-13T04:22:17;12.30;99.90
56076;DHT22;41951;49.022;12.066;2022-09-13T04:24:43;12.30;99.90
56076;DHT22;41951;49.022;12.066;2022-09-13T04:27:09;12.40;99.90
56076;DHT22;41951;49.022;12.066;2022-09-13T04:29:34;12.40;99.90
56076;DHT22;41951;49.022;12.066;2022-09-13T04:32:00;12.40;99.90
56076;DHT22;41951;49.022;12.066;2022-09-13T04:34:26;12.40;99.90
56076;DHT22;41951;49.022;12.066;2022-09-13T04:36:52;12.50;99.90
56076;DHT22;41951;49.022;12.066;2022-09-13T04:39:21;12.50;99.90
56076;DHT22;41951;49.022;12.066;2022-09-13T04:41:47;12.50;99.90
56076;DHT22;41951;49.022;12.066;2022-09-13T04:44:14;12.50;99.90
56076;DHT22;41951;49.022;12.066;2022-09-13T04:46:40;12.50;99.90
56076;DHT22;41951;49.022;12.066;2022-09-13T04:49:08;12.50;99.90
56076;DHT22;41951;49.022;12.066;2022-09-13T04:51:34;12.50;99.90
56076;DHT22;41951;49.022;12.066;2022-09-13T04:54:00;12.50;99.90
56076;DHT22;41951;49.022;12.066;2022-09-13T04:56:26;12.60;99.90
56076;DHT22;41951;49.022;12.066;2022-09-13T04:58:53;12.70;99.90
56076;DHT22;41951;49.022;12.066;2022-09-13T05:01:19;12.70;99.90
56076;DHT22;41951;49.022;12.066;2022-09-13T05:03:45;12.70;99.90
56076;DHT22;41951;49.022;12.066;2022-09-13T05:06:13;12.80;99.90
56076;DHT22;41951;49.022;12.066;2022-09-13T05:08:39;12.80;99.90
56076;DHT22;41951;49.022;12.066;2022-09-13T05:11:05;12.90;99.90
56076;DHT22;41951;49.022;12.066;2022-09-13T05:13:31;12.90;99.90
56076;DHT22;41951;49.022;12.066;2022-09-13T05:16:00;13.00;99.90
56076;DHT22;41951;49.022;12.066;2022-09-13T05:18:29;13.00;99.90
56076;DHT22;41951;49.022;12.066;2022-09-13T05:20:56;13.00;99.90
56076;DHT22;41951;49.022;12.066;2022-09-13T05:23:23;13.10;99.90
56076;DHT22;41951;49.022;12.066;2022-09-13T05:25:53;13.10;99.90
56076;DHT22;41951;49.022;12.066;2022-09-13T05:28:19;13.20;99.90
56076;DHT22;41951;49.022;12.066;2022-09-13T05:30:54;13.20;99.90
56076;DHT22;41951;49.022;12.066;2022-09-13T05:33:20;13.20;99.90
56076;DHT22;41951;49.022;12.066;2022-09-13T05:35:45;13.20;99.90
56076;DHT22;41951;49.022;12.066;2022-09-13T05:38:11;13.20;99.90
56076;DHT22;41951;49.022;12.066;2022-09-13T05:40:37;13.30;99.90
56076;DHT22;41951;49.022;12.066;2022-09-13T05:43:02;13.20;99.90
56076;DHT22;41951;49.022;12.066;2022-09-13T05:45:28;13.20;99.90
56076;DHT22;41951;49.022;12.066;2022-09-13T05:47:53;13.10;99.90
56076;DHT22;41951;49.022;12.066;2022-09-13T05:50:19;13.10;99.90
56076;DHT22;41951;49.022;12.066;2022-09-13T05:52:53;13.20;99.90
56076;DHT22;41951;49.022;12.066;2022-09-13T05:55:20;13.20;99.90
56076;DHT22;41951;49.022;12.066;2022-09-13T05:57:46;13.20;99.90
56076;DHT22;41951;49.022;12.066;2022-09-13T06:00:12;13.30;99.90
56076;DHT22;41951;49.022;12.066;2022-09-13T06:02:39;13.30;99.90
56076;DHT22;41951;49.022;12.066;2022-09-13T06:05:06;13.30;99.90
56076;DHT22;41951;49.022;12.066;2022-09-13T06:07:31;13.30;99.90
56076;DHT22;41951;49.022;12.066;2022-09-13T06:09:57;13.30;99.90
56076;DHT22;41951;49.022;12.066;2022-09-13T06:12:23;13.30;99.90
56076;DHT22;41951;49.022;12.066;2022-09-13T06:14:48;13.40;99.90
56076;DHT22;41951;49.022;12.066;2022-09-13T06:17:14;13.40;99.90
56076;DHT22;41951;49.022;12.066;2022-09-13T06:19:39;13.40;99.90
56076;DHT22;41951;49.022;12.066;2022-09-13T06:22:05;13.40;99.90
56076;DHT22;41951;49.022;12.066;2022-09-13T06:24:31;13.40;99.90
56076;DHT22;41951;49.022;12.066;2022-09-13T06:26:57;13.40;99.90
56076;DHT22;41951;49.022;12.066;2022-09-13T06:29:22;13.50;99.90
56076;DHT22;41951;49.022;12.066;2022-09-13T06:31:48;13.50;99.90
56076;DHT22;41951;49.022;12.066;2022-09-13T06:34:13;13.60;99.90
56076;DHT22;41951;49.022;12.066;2022-09-13T06:36:40;13.70;99.90
56076;DHT22;41951;49.022;12.066;2022-09-13T06:39:06;13.80;99.90
56076;DHT22;41951;49.022;12.066;2022-09-13T06:41:32;13.90;99.90
56076;DHT22;41951;49.022;12.066;2022-09-13T06:44:00;13.80;99.90
56076;DHT22;41951;49.022;12.066;2022-09-13T06:46:27;13.80;99.90
56076;DHT22;41951;49.022;12.066;2022-09-13T06:48:53;13.80;99.90
56076;DHT22;41951;49.022;12.066;2022-09-13T06:51:21;13.90;99.90
56076;DHT22;41951;49.022;12.066;2022-09-13T06:53:48;13.90;99.90
56076;DHT22;41951;49.022;12.066;2022-09-13T06:56:15;13.90;99.90
56076;DHT22;41951;49.022;12.066;2022-09-13T06:58:42;14.00;99.90
56076;DHT22;41951;49.022;12.066;2022-09-13T07:01:17;14.20;99.90
56076;DHT22;41951;49.022;12.066;2022-09-13T07:03:45;14.20;99.90
56076;DHT22;41951;49.022;12.066;2022-09-13T07:08:38;14.30;99.90
56076;DHT22;41951;49.022;12.066;2022-09-13T07:11:05;14.40;99.90
56076;DHT22;41951;49.022;12.066;2022-09-13T07:13:31;14.50;99.90
56076;DHT22;41951;49.022;12.066;2022-09-13T07:16:04;14.60;99.90
56076;DHT22;41951;49.022;12.066;2022-09-13T07:18:30;14.60;99.90
56076;DHT22;41951;49.022;12.066;2022-09-13T07:21:03;14.60;99.90
56076;DHT22;41951;49.022;12.066;2022-09-13T07:23:30;14.60;99.90
56076;DHT22;41951;49.022;12.066;2022-09-13T07:25:56;14.70;99.90
56076;DHT22;41951;49.022;12.066;2022-09-13T07:28:27;14.70;99.90
56076;DHT22;41951;49.022;12.066;2022-09-13T07:30:53;14.80;99.90
56076;DHT22;41951;49.022;12.066;2022-09-13T07:33:18;14.90;99.90
56076;DHT22;41951;49.022;12.066;2022-09-13T07:35:45;15.00;99.90
56076;DHT22;41951;49.022;12.066;2022-09-13T07:38:10;15.00;99.90
56076;DHT22;41951;49.022;12.066;2022-09-13T07:40:36;15.10;99.90
56076;DHT22;41951;49.022;12.066;2022-09-13T07:43:02;15.20;99.90
56076;DHT22;41951;49.022;12.066;2022-09-13T07:45:27;15.30;99.90
56076;DHT22;41951;49.022;12.066;2022-09-13T07:47:54;15.40;99.90
56076;DHT22;41951;49.022;12.066;2022-09-13T07:50:20;15.50;99.90
56076;DHT22;41951;49.022;12.066;2022-09-13T07:52:45;15.50;99.90
56076;DHT22;41951;49.022;12.066;2022-09-13T07:55:11;15.50;99.90
56076;DHT22;41951;49.022;12.066;2022-09-13T07:57:36;15.50;99.90
56076;DHT22;41951;49.022;12.066;2022-09-13T08:00:02;15.60;99.90
56076;DHT22;41951;49.022;12.066;2022-09-13T08:02:29;15.50;99.90
56076;DHT22;41951;49.022;12.066;2022-09-13T08:04:55;15.50;99.90
56076;DHT22;41951;49.022;12.066;2022-09-13T08:07:20;15.50;99.90
56076;DHT22;41951;49.022;12.066;2022-09-13T08:09:46;15.60;99.90
56076;DHT22;41951;49.022;12.066;2022-09-13T08:12:12;15.60;99.90
56076;DHT22;41951;49.022;12.066;2022-09-13T08:14:37;15.60;99.90
56076;DHT22;41951;49.022;12.066;2022-09-13T08:17:03;15.70;99.90
56076;DHT22;41951;49.022;12.066;2022-09-13T08:19:28;15.80;99.90
56076;DHT22;41951;49.022;12.066;2022-09-13T08:21:54;15.90;99.90
56076;DHT22;41951;49.022;12.066;2022-09-13T08:24:20;16.00;99.90
56076;DHT22;41951;49.022;12.066;2022-09-13T08:26:46;16.00;99.90
56076;DHT22;41951;49.022;12.066;2022-09-13T08:29:13;16.10;99.90
56076;DHT22;41951;49.022;12.066;2022-09-13T08:31:39;16.00;99.90
56076;DHT22;41951;49.022;12.066;2022-09-13T08:34:08;16.10;99.90
56076;DHT22;41951;49.022;12.066;2022-09-13T08:36:35;16.10;99.90
56076;DHT22;41951;49.022;12.066;2022-09-13T08:39:01;16.10;99.90
56076;DHT22;41951;49.022;12.066;2022-09-13T08:44:04;16.20;99.90
56076;DHT22;41951;49.022;12.066;2022-09-13T08:46:39;16.30;99.90
56076;DHT22;41951;49.022;12.066;2022-09-13T08:49:10;16.30;99.90
56076;DHT22;41951;49.022;12.066;2022-09-13T08:51:41;16.50;99.90
56076;DHT22;41951;49.022;12.066;2022-09-13T08:54:14;16.60;99.90
56076;DHT22;41951;49.022;12.066;2022-09-13T08:56:41;16.70;99.90
56076;DHT22;41951;49.022;12.066;2022-09-13T08:59:36;16.90;99.90
56076;DHT22;41951;49.022;12.066;2022-09-13T09:02:35;17.10;99.90
56076;DHT22;41951;49.022;12.066;2022-09-13T09:05:08;17.30;99.90
56076;DHT22;41951;49.022;12.066;2022-09-13T09:10:26;17.50;99.90
56076;DHT22;41951;49.022;12.066;2022-09-13T09:12:57;17.60;99.90
56076;DHT22;41951;49.022;12.066;2022-09-13T09:15:37;17.60;99.90
56076;DHT22;41951;49.022;12.066;2022-09-13T09:18:21;17.70;99.90
56076;DHT22;41951;49.022;12.066;2022-09-13T09:20:53;17.70;99.90
56076;DHT22;41951;49.022;12.066;2022-09-13T09:23:47;17.80;99.90
56076;DHT22;41951;49.022;12.066;2022-09-13T09:26:18;17.80;99.90
56076;DHT22;41951;49.022;12.066;2022-09-13T09:29:17;17.80;99.90
56076;DHT22;41951;49.022;12.066;2022-09-13T09:32:04;17.80;99.90
56076;DHT22;41951;49.022;12.066;2022-09-13T09:34:57;18.00;99.90
56076;DHT22;41951;49.022;12.066;2022-09-13T09:37:29;18.00;99.90
56076;DHT22;41951;49.022;12.066;2022-09-13T09:39:59;18.10;99.90
56076;DHT22;41951;49.022;12.066;2022-09-13T09:42:29;18.20;99.90
56076;DHT22;41951;49.022;12.066;2022-09-13T09:45:04;18.30;99.90
56076;DHT22;41951;49.022;12.066;2022-09-13T09:47:43;18.40;99.90
56076;DHT22;41951;49.022;12.066;2022-09-13T09:50:13;18.50;99.90
56076;DHT22;41951;49.022;12.066;2022-09-13T09:53:06;18.50;99.90
56076;DHT22;41951;49.022;12.066;2022-09-13T09:55:45;18.60;99.90
56076;DHT22;41951;49.022;12.066;2022-09-13T09:58:12;18.60;99.90
56076;DHT22;41951;49.022;12.066;2022-09-13T10:00:50;18.70;99.90
56076;DHT22;41951;49.022;12.066;2022-09-13T10:03:18;18.70;99.90
56076;DHT22;41951;49.022;12.066;2022-09-13T10:05:45;18.80;99.90
56076;DHT22;41951;49.022;12.066;2022-09-13T10:08:25;18.90;99.90
56076;DHT22;41951;49.022;12.066;2022-09-13T10:10:54;19.00;99.90
56076;DHT22;41951;49.022;12.066;2022-09-13T10:13:23;19.10;99.90
56076;DHT22;41951;49.022;12.066;2022-09-13T10:15:53;19.10;99.90
56076;DHT22;41951;49.022;12.066;2022-09-13T10:18:20;19.20;99.90
56076;DHT22;41951;49.022;12.066;2022-09-13T10:21:22;19.30;99.90
56076;DHT22;41951;49.022;12.066;2022-09-13T10:23:49;19.40;99.90
56076;DHT22;41951;49.022;12.066;2022-09-13T10:26:25;19.40;99.90
56076;DHT22;41951;49.022;12.066;2022-09-13T10:31:29;19.40;99.90
56076;DHT22;41951;49.022;12.066;2022-09-13T10:33:59;19.30;99.90
56076;DHT22;41951;49.022;12.066;2022-09-13T10:36:30;19.20;99.90
56076;DHT22;41951;49.022;12.066;2022-09-13T10:39:02;19.10;99.90
56076;DHT22;41951;49.022;12.066;2022-09-13T10:41:36;18.90;99.90
56076;DHT22;41951;49.022;12.066;2022-09-13T10:44:05;18.90;99.90
56076;DHT22;41951;49.022;12.066;2022-09-13T10:46:34;18.90;99.90
56076;DHT22;41951;49.022;12.066;2022-09-13T10:49:01;18.90;99.90
56076;DHT22;41951;49.022;12.066;2022-09-13T10:54:32;18.90;99.90
56076;DHT22;41951;49.022;12.066;2022-09-13T11:00:05;18.90;99.90
56076;DHT22;41951;49.022;12.066;2022-09-13T11:08:24;18.90;99.90
56076;DHT22;41951;49.022;12.066;2022-09-13T11:11:10;18.90;99.90
56076;DHT22;41951;49.022;12.066;2022-09-13T11:16:31;18.90;99.90
56076;DHT22;41951;49.022;12.066;2022-09-13T11:21:52;18.90;99.90
56076;DHT22;41951;49.022;12.066;2022-09-13T11:24:44;18.90;99.90
56076;DHT22;41951;49.022;12.066;2022-09-13T11:28:03;18.90;99.90
56076;DHT22;41951;49.022;12.066;2022-09-13T11:30:20;18.80;99.90
56076;DHT22;41951;49.022;12.066;2022-09-13T11:38:30;18.90;99.90
56076;DHT22;41951;49.022;12.066;2022-09-13T11:51:04;18.90;99.90
56076;DHT22;41951;49.022;12.066;2022-09-13T11:56:35;18.90;99.90
56076;DHT22;41951;49.022;12.066;2022-09-13T11:59:20;19.00;99.90
56076;DHT22;41951;49.022;12.066;2022-09-13T12:01:55;19.00;99.90
56076;DHT22;41951;49.022;12.066;2022-09-13T12:04:25;19.20;99.90
56076;DHT22;41951;49.022;12.066;2022-09-13T12:07:03;19.20;99.90
56076;DHT22;41951;49.022;12.066;2022-09-13T12:09:35;19.40;99.90
56076;DHT22;41951;49.022;12.066;2022-09-13T12:12:06;19.50;99.90
56076;DHT22;41951;49.022;12.066;2022-09-13T12:14:46;19.70;99.90
56076;DHT22;41951;49.022;12.066;2022-09-13T12:17:30;19.80;99.90
56076;DHT22;41951;49.022;12.066;2022-09-13T12:20:04;19.90;99.90
56076;DHT22;41951;49.022;12.066;2022-09-13T12:22:32;20.00;99.90
56076;DHT22;41951;49.022;12.066;2022-09-13T12:25:04;20.00;99.90
56076;DHT22;41951;49.022;12.066;2022-09-13T12:27:55;20.20;99.90
56076;DHT22;41951;49.022;12.066;2022-09-13T12:30:27;20.30;99.90
56076;DHT22;41951;49.022;12.066;2022-09-13T12:32:57;20.40;99.90
56076;DHT22;41951;49.022;12.066;2022-09-13T12:44:03;20.20;99.90
56076;DHT22;41951;49.022;12.066;2022-09-13T12:49:34;20.20;99.90
56076;DHT22;41951;49.022;12.066;2022-09-13T12:52:26;20.20;99.90
56076;DHT22;41951;49.022;12.066;2022-09-13T13:00:29;20.10;99.90
56076;DHT22;41951;49.022;12.066;2022-09-13T13:05:29;20.10;99.90
56076;DHT22;41951;49.022;12.066;2022-09-13T13:08:03;20.00;99.90
56076;DHT22;41951;49.022;12.066;2022-09-13T13:10:32;20.00;99.90
56076;DHT22;41951;49.022;12.066;2022-09-13T13:13:12;20.00;99.90
56076;DHT22;41951;49.022;12.066;2022-09-13T13:23:27;19.90;99.90
56076;DHT22;41951;49.022;12.066;2022-09-13T13:31:33;19.80;99.90
56076;DHT22;41951;49.022;12.066;2022-09-13T13:39:12;19.90;99.90
56076;DHT22;41951;49.022;12.066;2022-09-13T13:49:43;20.00;99.90
56076;DHT22;41951;49.022;12.066;2022-09-13T13:52:33;20.00;99.90
56076;DHT22;41951;49.022;12.066;2022-09-13T13:55:01;20.00;99.90
56076;DHT22;41951;49.022;12.066;2022-09-13T13:57:34;20.00;99.90
56076;DHT22;41951;49.022;12.066;2022-09-13T14:19:30;19.70;99.90
56076;DHT22;41951;49.022;12.066;2022-09-13T14:22:17;19.70;99.90
56076;DHT22;41951;49.022;12.066;2022-09-13T14:25:12;19.70;99.90
56076;DHT22;41951;49.022;12.066;2022-09-13T14:27:34;19.70;99.90
56076;DHT22;41951;49.022;12.066;2022-09-13T14:30:21;19.70;99.90
56076;DHT22;41951;49.022;12.066;2022-09-13T14:32:51;19.70;99.90
56076;DHT22;41951;49.022;12.066;2022-09-13T14:35:27;19.60;99.90
56076;DHT22;41951;49.022;12.066;2022-09-13T14:37:54;19.60;99.90
56076;DHT22;41951;49.022;12.066;2022-09-13T14:40:25;19.60;99.90
56076;DHT22;41951;49.022;12.066;2022-09-13T14:42:53;19.50;99.90
56076;DHT22;41951;49.022;12.066;2022-09-13T14:45:23;19.50;99.90
56076;DHT22;41951;49.022;12.066;2022-09-13T14:48:17;19.50;99.90
56076;DHT22;41951;49.022;12.066;2022-09-13T14:50:51;19.50;99.90
56076;DHT22;41951;49.022;12.066;2022-09-13T14:53:21;19.40;99.90
56076;DHT22;41951;49.022;12.066;2022-09-13T14:58:22;19.40;99.90
56076;DHT22;41951;49.022;12.066;2022-09-13T15:00:55;19.40;99.90
56076;DHT22;41951;49.022;12.066;2022-09-13T15:03:22;19.70;99.90
56076;DHT22;41951;49.022;12.066;2022-09-13T15:05:54;19.40;99.90
56076;DHT22;41951;49.022;12.066;2022-09-13T15:08:43;19.30;99.90
56076;DHT22;41951;49.022;12.066;2022-09-13T15:11:26;19.30;99.90
56076;DHT22;41951;49.022;12.066;2022-09-13T15:16:53;19.20;99.90
56076;DHT22;41951;49.022;12.066;2022-09-13T15:20:19;19.20;99.90
56076;DHT22;41951;49.022;12.066;2022-09-13T15:22:31;19.20;99.90
56076;DHT22;41951;49.022;12.066;2022-09-13T15:24:59;19.20;99.90
56076;DHT22;41951;49.022;12.066;2022-09-13T15:27:30;19.20;99.90
56076;DHT22;41951;49.022;12.066;2022-09-13T15:29:57;19.10;99.90
56076;DHT22;41951;49.022;12.066;2022-09-13T15:32:33;19.20;99.90
56076;DHT22;41951;49.022;12.066;2022-09-13T15:35:00;19.20;99.90
56076;DHT22;41951;49.022;12.066;2022-09-13T15:37:35;19.20;99.90
56076;DHT22;41951;49.022;12.066;2022-09-13T15:40:20;19.20;99.90
56076;DHT22;41951;49.022;12.066;2022-09-13T15:42:51;19.10;99.90
56076;DHT22;41951;49.022;12.066;2022-09-13T15:45:19;19.20;99.90
56076;DHT22;41951;49.022;12.066;2022-09-13T15:47:46;19.10;99.90
56076;DHT22;41951;49.022;12.066;2022-09-13T15:50:27;19.10;99.90
56076;DHT22;41951;49.022;12.066;2022-09-13T15:52:56;19.10;99.90
56076;DHT22;41951;49.022;12.066;2022-09-13T15:55:23;19.10;99.90
56076;DHT22;41951;49.022;12.066;2022-09-13T15:57:49;19.20;99.90
56076;DHT22;41951;49.022;12.066;2022-09-13T16:00:21;19.10;99.90
56076;DHT22;41951;49.022;12.066;2022-09-13T16:02:47;19.10;99.90
56076;DHT22;41951;49.022;12.066;2022-09-13T16:05:13;19.10;99.90
56076;DHT22;41951;49.022;12.066;2022-09-13T16:07:40;19.10;99.90
56076;DHT22;41951;49.022;12.066;2022-09-13T16:10:14;19.10;99.90
56076;DHT22;41951;49.022;12.066;2022-09-13T16:12:40;19.10;99.90
56076;DHT22;41951;49.022;12.066;2022-09-13T16:15:06;19.10;99.90
56076;DHT22;41951;49.022;12.066;2022-09-13T16:17:32;19.10;99.90
56076;DHT22;41951;49.022;12.066;2022-09-13T16:19:58;19.00;99.90
56076;DHT22;41951;49.022;12.066;2022-09-13T16:22:23;19.00;99.90
56076;DHT22;41951;49.022;12.066;2022-09-13T16:24:49;19.00;99.90
56076;DHT22;41951;49.022;12.066;2022-09-13T16:27:16;19.00;99.90
56076;DHT22;41951;49.022;12.066;2022-09-13T16:29:42;19.00;99.90
56076;DHT22;41951;49.022;12.066;2022-09-13T16:32:08;19.00;99.90
56076;DHT22;41951;49.022;12.066;2022-09-13T16:34:33;19.00;99.90
56076;DHT22;41951;49.022;12.066;2022-09-13T16:36:59;18.90;99.90
56076;DHT22;41951;49.022;12.066;2022-09-13T16:39:25;18.90;99.90
56076;DHT22;41951;49.022;12.066;2022-09-13T16:41:50;18.90;99.90
56076;DHT22;41951;49.022;12.066;2022-09-13T16:44:16;18.90;99.90
56076;DHT22;41951;49.022;12.066;2022-09-13T16:46:42;18.90;99.90
56076;DHT22;41951;49.022;12.066;2022-09-13T16:49:08;18.90;99.90
56076;DHT22;41951;49.022;12.066;2022-09-13T16:51:34;18.90;99.90
56076;DHT22;41951;49.022;12.066;2022-09-13T16:54:01;18.80;99.90
56076;DHT22;41951;49.022;12.066;2022-09-13T16:56:27;18.80;99.90
56076;DHT22;41951;49.022;12.066;2022-09-13T16:58:54;18.80;99.90
56076;DHT22;41951;49.022;12.066;2022-09-13T17:01:23;18.80;99.90
56076;DHT22;41951;49.022;12.066;2022-09-13T17:03:49;18.80;99.90
56076;DHT22;41951;49.022;12.066;2022-09-13T17:06:16;18.70;99.90
56076;DHT22;41951;49.022;12.066;2022-09-13T17:08:47;18.70;99.90
56076;DHT22;41951;49.022;12.066;2022-09-13T17:11:15;18.70;99.90
56076;DHT22;41951;49.022;12.066;2022-09-13T17:13:41;18.70;99.90
56076;DHT22;41951;49.022;12.066;2022-09-13T17:16:25;18.70;99.90
56076;DHT22;41951;49.022;12.066;2022-09-13T17:18:52;18.60;99.90
56076;DHT22;41951;49.022;12.066;2022-09-13T17:21:18;18.60;99.90
56076;DHT22;41951;49.022;12.066;2022-09-13T17:23:44;18.60;99.90
56076;DHT22;41951;49.022;12.066;2022-09-13T17:26:09;18.60;99.90
56076;DHT22;41951;49.022;12.066;2022-09-13T17:28:35;18.60;99.90
56076;DHT22;41951;49.022;12.066;2022-09-13T17:31:01;18.50;99.90
56076;DHT22;41951;49.022;12.066;2022-09-13T17:33:27;18.60;99.90
56076;DHT22;41951;49.022;12.066;2022-09-13T17:36:07;18.60;99.90
56076;DHT22;41951;49.022;12.066;2022-09-13T17:38:34;18.50;99.90
56076;DHT22;41951;49.022;12.066;2022-09-13T17:41:07;18.40;99.90
56076;DHT22;41951;49.022;12.066;2022-09-13T17:43:34;18.50;99.90
56076;DHT22;41951;49.022;12.066;2022-09-13T17:46:10;18.50;99.90
56076;DHT22;41951;49.022;12.066;2022-09-13T17:48:36;18.50;99.90
56076;DHT22;41951;49.022;12.066;2022-09-13T17:51:08;18.50;99.90
56076;DHT22;41951;49.022;12.066;2022-09-13T17:53:42;18.50;99.90
56076;DHT22;41951;49.022;12.066;2022-09-13T17:56:08;18.40;99.90
56076;DHT22;41951;49.022;12.066;2022-09-13T17:58:35;18.40;99.90
56076;DHT22;41951;49.022;12.066;2022-09-13T18:01:05;18.40;99.90
56076;DHT22;41951;49.022;12.066;2022-09-13T18:03:31;18.40;99.90
56076;DHT22;41951;49.022;12.066;2022-09-13T18:05:59;18.40;99.90
56076;DHT22;41951;49.022;12.066;2022-09-13T18:08:26;18.40;99.90
56076;DHT22;41951;49.022;12.066;2022-09-13T18:10:52;18.40;99.90
56076;DHT22;41951;49.022;12.066;2022-09-13T18:13:18;18.40;99.90
56076;DHT22;41951;49.022;12.066;2022-09-13T18:15:44;18.40;99.90
56076;DHT22;41951;49.022;12.066;2022-09-13T18:18:13;18.30;99.90
56076;DHT22;41951;49.022;12.066;2022-09-13T18:20:44;18.30;99.90
56076;DHT22;41951;49.022;12.066;2022-09-13T18:23:09;18.30;99.90
56076;DHT22;41951;49.022;12.066;2022-09-13T18:25:35;18.30;99.90
56076;DHT22;41951;49.022;12.066;2022-09-13T18:28:02;18.30;99.90
56076;DHT22;41951;49.022;12.066;2022-09-13T18:30:28;18.30;99.90
56076;DHT22;41951;49.022;12.066;2022-09-13T18:32:53;18.30;99.90